Time;durP1;ratioP1;P1;durP2;ratioP2;P2;SDS_P1;SDS_P2;PMS_P1;PMS_P2;Temp;Humidity;BMP_temperature;BMP_pressure;BME280_temperature;BME280_humidity;BME280_pressure;Samples;Min_cycle;Max_cycle;Signal;HPM_P1;HPM_P2
2021/08/03 00:00:05;;;;;;;9.95;5.25;;;;;;;14.30;64.86;100222.70;128421;1095;23765;-78
2021/08/03 00:03:03;;;;;;;6.65;5.65;;;;;;;14.28;65.05;100226.56;128928;1095;24227;-78
2021/08/03 00:05:40;;;;;;;7.70;5.03;;;;;;;14.26;65.17;100225.92;128641;1095;23112;-78
2021/08/03 00:08:20;;;;;;;5.73;5.03;;;;;;;14.23;65.46;100231.63;128600;1095;24227;-80
2021/08/03 00:10:54;;;;;;;8.45;5.10;;;;;;;14.23;65.77;100231.63;128605;1093;22326;-79
2021/08/03 00:13:28;;;;;;;8.88;5.30;;;;;;;14.25;65.89;100237.58;128208;1098;22345;-79
2021/08/03 00:16:02;;;;;;;8.18;5.55;;;;;;;14.22;65.92;100228.15;128021;1098;22357;-79
2021/08/03 00:18:32;;;;;;;7.80;5.65;;;;;;;14.20;65.69;100232.86;128250;1098;22352;-78
2021/08/03 00:21:03;;;;;;;7.93;6.03;;;;;;;14.15;65.99;100229.95;128149;1098;23134;-78
2021/08/03 00:23:33;;;;;;;9.70;6.15;;;;;;;14.15;66.32;100237.09;128143;1098;22648;-77
2021/08/03 00:26:03;;;;;;;9.55;6.18;;;;;;;14.15;66.43;100226.48;128209;1098;22357;-77
2021/08/03 00:28:33;;;;;;;9.08;6.25;;;;;;;14.17;66.37;100237.73;128147;1098;22357;-80
2021/08/03 00:31:02;;;;;;;7.63;5.53;;;;;;;14.16;66.66;100238.73;128235;1095;22371;-78
2021/08/03 00:33:33;;;;;;;8.20;6.03;;;;;;;14.15;66.49;100240.58;128372;1095;22334;-78
2021/08/03 00:36:02;;;;;;;8.15;6.33;;;;;;;14.15;66.83;100232.60;128294;1095;22349;-79
2021/08/03 00:38:32;;;;;;;7.73;4.73;;;;;;;14.17;67.19;100238.55;128300;1095;22334;-79
2021/08/03 00:41:07;;;;;;;9.88;5.30;;;;;;;14.20;67.26;100232.04;128521;1095;22338;-79
2021/08/03 00:43:37;;;;;;;8.80;5.90;;;;;;;14.22;67.24;100235.30;128664;1095;22337;-77
2021/08/03 00:46:07;;;;;;;7.98;5.70;;;;;;;14.22;67.24;100237.96;128577;1095;22335;-78
2021/08/03 00:48:37;;;;;;;9.67;6.67;;;;;;;14.23;67.16;100232.47;128320;1095;22359;-78
2021/08/03 00:51:07;;;;;;;8.85;5.33;;;;;;;14.26;67.25;100239.20;128241;1095;22610;-78
2021/08/03 00:53:43;;;;;;;10.90;6.80;;;;;;;14.25;67.31;100234.92;128300;1095;22344;-78
2021/08/03 00:56:14;;;;;;;6.68;5.50;;;;;;;14.23;67.22;100242.25;128269;1095;22475;-78
2021/08/03 00:58:44;;;;;;;;;;;;;;;14.14;67.04;100238.94;128303;1095;22350;-78
2021/08/03 01:01:14;;;;;;;7.40;5.53;;;;;;;14.11;67.48;100250.77;128292;1095;22981;-78
2021/08/03 01:03:45;;;;;;;8.53;5.90;;;;;;;14.16;67.72;100241.39;128295;1095;24486;-77
2021/08/03 01:06:34;;;;;;;6.38;5.68;;;;;;;14.20;67.84;100247.98;128586;1094;22380;-78
2021/08/03 01:09:36;;;;;;;7.85;6.18;;;;;;;14.21;67.64;100249.61;128274;1095;22362;-78
2021/08/03 01:12:40;;;;;;;11.85;5.63;;;;;;;14.24;67.94;100255.36;128594;1095;22348;-78
2021/08/03 01:15:17;;;;;;;9.35;5.58;;;;;;;14.23;67.78;100244.91;128570;1095;22342;-79
2021/08/03 01:18:31;;;;;;;6.75;5.08;;;;;;;14.24;67.80;100250.05;128552;1094;25019;-78
2021/08/03 01:21:54;;;;;;;10.50;5.87;;;;;;;14.23;67.85;100250.22;128164;1098;22354;-77
2021/08/03 01:24:48;;;;;;;6.43;5.50;;;;;;;14.23;67.95;100260.84;128138;1098;22353;-77
2021/08/03 01:27:32;;;;;;;6.45;5.83;;;;;;;14.19;67.84;100262.26;128038;1098;22369;-78
2021/08/03 01:30:04;;;;;;;8.43;5.33;;;;;;;14.17;68.00;100251.02;128279;1098;22344;-78
2021/08/03 01:32:41;;;;;;;10.55;7.35;;;;;;;14.15;68.27;100253.86;127976;1098;22366;-78
2021/08/03 01:35:14;;;;;;;9.08;6.33;;;;;;;14.16;68.57;100257.33;128077;1098;22375;-77
2021/08/03 01:37:47;;;;;;;8.73;5.58;;;;;;;14.15;68.23;100250.38;128055;1098;22360;-78
2021/08/03 01:40:19;;;;;;;7.55;5.80;;;;;;;14.13;68.22;100253.25;127996;1098;22379;-77
2021/08/03 01:42:49;;;;;;;7.48;6.45;;;;;;;14.10;68.36;100251.79;128080;1098;23285;-78
2021/08/03 01:45:23;;;;;;;8.78;6.73;;;;;;;14.09;68.59;100247.50;128044;1098;22362;-78
2021/08/03 01:47:55;;;;;;;6.78;6.03;;;;;;;14.10;68.58;100243.00;128194;1098;24522;-78
2021/08/03 01:50:28;;;;;;;10.60;5.83;;;;;;;14.11;69.03;100252.61;128186;1098;22377;-78
2021/08/03 01:53:03;;;;;;;10.45;6.15;;;;;;;14.10;68.80;100249.13;128200;1098;22359;-78
2021/08/03 01:55:34;;;;;;;6.80;6.10;;;;;;;14.10;68.99;100248.31;128159;1098;22804;-78
2021/08/03 01:58:13;;;;;;;7.93;5.63;;;;;;;14.10;69.24;100246.48;128402;1095;22792;-79
2021/08/03 02:00:53;;;;;;;6.48;5.43;;;;;;;14.12;69.43;100257.71;128303;1095;22362;-77
2021/08/03 02:03:27;;;;;;;9.48;6.48;;;;;;;14.13;69.60;100255.91;128329;1095;23383;-77
2021/08/03 02:06:17;;;;;;;7.03;5.63;;;;;;;14.03;69.30;100258.89;128026;1098;22385;-77
2021/08/03 02:08:49;;;;;;;11.25;5.90;;;;;;;13.96;69.57;100265.14;128259;1098;22358;-79
2021/08/03 02:11:26;;;;;;;11.03;6.53;;;;;;;13.89;69.72;100259.78;128182;1098;22393;-78
2021/08/03 02:13:58;;;;;;;7.75;6.95;;;;;;;13.89;70.11;100262.43;127983;1098;22351;-78
2021/08/03 02:16:51;;;;;;;14.53;6.88;;;;;;;13.91;70.41;100255.11;128180;1098;24234;-79
2021/08/03 02:19:25;;;;;;;8.03;7.05;;;;;;;13.95;70.42;100256.36;128160;1098;22350;-77
2021/08/03 02:22:04;;;;;;;6.67;5.97;;;;;;;13.99;70.44;100264.76;128453;1097;22348;-78
2021/08/03 02:24:37;;;;;;;7.00;5.90;;;;;;;14.00;70.49;100267.24;128141;1095;22350;-78
2021/08/03 02:27:09;;;;;;;10.83;9.45;;;;;;;14.03;70.71;100261.55;128287;1095;22359;-77
2021/08/03 02:29:45;;;;;;;9.65;6.40;;;;;;;14.06;70.69;100263.82;128340;1095;24485;-78
2021/08/03 02:32:50;;;;;;;6.75;6.10;;;;;;;14.08;70.84;100263.61;128852;1093;22353;-78
2021/08/03 02:35:28;;;;;;;8.83;5.98;;;;;;;14.08;70.88;100266.27;128300;1095;22353;-78
2021/08/03 02:38:06;;;;;;;6.85;6.08;;;;;;;14.09;71.04;100263.44;128583;1095;22343;-77
2021/08/03 02:40:40;;;;;;;7.28;6.58;;;;;;;14.09;70.77;100270.56;128326;1095;22369;-78
2021/08/03 02:43:20;;;;;;;10.93;6.25;;;;;;;14.04;70.74;100263.18;128271;1095;22366;-79
2021/08/03 02:46:00;;;;;;;8.10;5.88;;;;;;;14.02;70.88;100264.38;128268;1095;22375;-78
2021/08/03 02:48:32;;;;;;;10.98;7.03;;;;;;;14.03;71.16;100274.83;128590;1095;24142;-79
2021/08/03 02:51:03;;;;;;;;;;;;;;;14.00;71.15;100283.17;128355;1095;23129;-76
2021/08/03 02:53:47;;;;;;;9.65;6.20;;;;;;;13.98;71.33;100279.88;128264;1095;22016;-77
2021/08/03 02:56:21;;;;;;;5.88;5.30;;;;;;;14.03;71.81;100269.52;128229;1095;24492;-78
2021/08/03 02:59:05;;;;;;;7.75;6.85;;;;;;;14.08;71.68;100280.37;128308;1095;24608;-78
2021/08/03 03:01:38;;;;;;;8.58;6.20;;;;;;;14.12;71.62;100278.96;128256;1095;22356;-77
2021/08/03 03:04:41;;;;;;;7.35;6.03;;;;;;;14.13;71.63;100280.63;128313;1095;22351;-78
2021/08/03 03:07:33;;;;;;;9.95;6.68;;;;;;;14.11;71.44;100274.67;128253;1095;22361;-77
2021/08/03 03:10:09;;;;;;;8.18;6.30;;;;;;;14.10;71.40;100281.02;128262;1094;22369;-78
2021/08/03 03:12:48;;;;;;;9.33;6.35;;;;;;;14.11;71.59;100281.83;128226;1095;22494;-77
2021/08/03 03:15:19;;;;;;;8.00;6.30;;;;;;;14.10;71.75;100286.33;128551;1095;22369;-78
2021/08/03 03:17:51;;;;;;;7.20;6.10;;;;;;;14.13;71.76;100285.13;128235;1095;23027;-78
2021/08/03 03:20:23;;;;;;;10.23;7.10;;;;;;;14.15;71.94;100296.36;128272;1095;22366;-77
2021/08/03 03:22:55;;;;;;;;;;;;;;;14.13;71.89;100290.44;128589;1095;22825;-77
2021/08/03 03:25:27;;;;;;;9.63;6.30;;;;;;;14.11;72.05;100281.83;128236;1095;21266;-77
2021/08/03 03:28:02;;;;;;;10.48;7.20;;;;;;;14.10;71.87;100288.98;128239;1095;22365;-79
2021/08/03 03:30:34;;;;;;;8.23;6.43;;;;;;;14.13;71.98;100291.25;128501;1095;22364;-78
2021/08/03 03:33:05;;;;;;;9.80;7.10;;;;;;;14.17;72.33;100290.88;128412;1095;24489;-77
2021/08/03 03:35:41;;;;;;;7.73;6.85;;;;;;;14.23;72.25;100287.42;128564;1095;22365;-77
2021/08/03 03:38:12;;;;;;;11.90;7.40;;;;;;;14.28;72.38;100285.02;128614;1095;23300;-78
2021/08/03 03:40:47;;;;;;;8.63;7.03;;;;;;;14.34;72.46;100287.72;128176;1098;22398;-77
2021/08/03 03:43:20;;;;;;;9.08;6.55;;;;;;;14.40;72.47;100288.80;128430;1097;22369;-79
2021/08/03 03:46:16;;;;;;;8.68;6.88;;;;;;;14.48;72.56;100296.60;128214;1098;22358;-78
2021/08/03 03:48:54;;;;;;;7.98;7.03;;;;;;;14.53;72.46;100296.89;128044;1098;22375;-78
2021/08/03 03:51:28;;;;;;;8.13;6.40;;;;;;;14.61;72.41;100311.85;128041;1098;22372;-78
2021/08/03 03:54:05;;;;;;;11.83;6.98;;;;;;;14.67;72.51;100318.23;128215;1098;22353;-78
2021/08/03 03:56:52;;;;;;;7.55;6.25;;;;;;;14.74;72.37;100316.44;127943;1098;22431;-77
2021/08/03 03:59:22;;;;;;;5.93;5.30;;;;;;;14.81;72.45;100304.81;128261;1095;22346;-78
2021/08/03 04:01:58;;;;;;;7.68;6.90;;;;;;;14.93;72.38;100305.09;128235;1095;22350;-77
2021/08/03 04:04:30;;;;;;;8.98;6.93;;;;;;;15.02;72.31;100305.72;128300;1095;24240;-78
2021/08/03 04:07:00;;;;;;;7.58;6.88;;;;;;;15.10;72.12;100313.55;128270;1095;24615;-79
2021/08/03 04:09:31;;;;;;;9.93;7.40;;;;;;;15.15;71.74;100316.42;128573;1095;24656;-78
2021/08/03 04:12:08;;;;;;;6.53;5.93;;;;;;;15.23;71.84;100318.11;128233;1095;22338;-79
2021/08/03 04:14:42;;;;;;;;;;;;;;;15.25;71.63;100306.22;128170;1098;22342;-77
2021/08/03 04:17:13;;;;;;;7.68;6.60;;;;;;;15.27;71.49;100308.70;128206;1098;21417;-78
2021/08/03 04:19:44;;;;;;;7.97;6.93;;;;;;;15.35;71.40;100313.84;128159;1098;22369;-79
2021/08/03 04:22:14;;;;;;;6.95;6.25;;;;;;;15.43;71.10;100328.83;127967;1098;22350;-78
2021/08/03 04:24:44;;;;;;;13.58;7.08;;;;;;;15.51;71.37;100318.80;128138;1098;22366;-77
2021/08/03 04:27:13;;;;;;;9.38;7.05;;;;;;;15.61;70.85;100325.59;128150;1098;22362;-78
2021/08/03 04:29:43;;;;;;;6.67;6.00;;;;;;;15.66;70.56;100334.66;128186;1098;22391;-78
2021/08/03 04:32:12;;;;;;;7.08;6.38;;;;;;;15.72;70.62;100331.16;128276;1095;24972;-78
2021/08/03 04:34:42;;;;;;;6.48;5.88;;;;;;;15.78;70.17;100332.20;128298;1095;22351;-79
2021/08/03 04:37:11;;;;;;;7.08;5.95;;;;;;;15.80;70.01;100335.50;128514;1095;22350;-78
2021/08/03 04:39:41;;;;;;;10.23;6.68;;;;;;;15.86;69.68;100356.01;128542;1095;22363;-77
2021/08/03 04:42:11;;;;;;;11.10;7.10;;;;;;;15.92;69.79;100347.18;128220;1095;22366;-78
2021/08/03 04:44:41;;;;;;;9.30;7.00;;;;;;;15.98;69.66;100350.89;128314;1095;22347;-78
2021/08/03 04:47:10;;;;;;;8.05;7.18;;;;;;;16.07;69.85;100346.20;128181;1098;23138;-79
2021/08/03 04:49:40;;;;;;;7.65;6.53;;;;;;;16.17;70.11;100338.61;128167;1097;22400;-77
2021/08/03 04:52:09;;;;;;;7.88;6.98;;;;;;;16.28;69.60;100345.17;128188;1098;22369;-78
2021/08/03 04:54:39;;;;;;;7.20;6.60;;;;;;;16.35;69.30;100341.47;128206;1098;22379;-77
2021/08/03 04:57:08;;;;;;;8.57;7.77;;;;;;;16.39;69.07;100334.72;128199;1097;22363;-77
2021/08/03 04:59:38;;;;;;;10.10;7.43;;;;;;;16.43;68.75;100341.28;128147;1098;22366;-77
2021/08/03 05:02:08;;;;;;;8.08;6.55;;;;;;;16.47;68.81;100341.68;128172;1098;25199;-77
2021/08/03 05:04:37;;;;;;;7.58;6.85;;;;;;;16.48;68.42;100344.13;128192;1095;22369;-76
2021/08/03 05:07:07;;;;;;;8.25;7.45;;;;;;;16.49;68.26;100339.61;128594;1094;24492;-77
2021/08/03 05:09:37;;;;;;;7.50;6.80;;;;;;;16.51;68.24;100331.42;128578;1095;24511;-77
2021/08/03 05:12:06;;;;;;;7.68;6.98;;;;;;;16.56;68.35;100339.60;128555;1095;22346;-77
2021/08/03 05:14:36;;;;;;;6.88;6.18;;;;;;;16.63;68.22;100340.44;128285;1095;23128;-78
2021/08/03 05:17:06;;;;;;;9.00;6.73;;;;;;;16.76;68.24;100336.94;128558;1095;22677;-77
2021/08/03 05:19:36;;;;;;;7.93;5.25;;;;;;;16.92;68.66;100341.82;128263;1095;22388;-77
2021/08/03 05:22:05;;;;;;;9.00;5.50;;;;;;;17.14;68.16;100345.87;128523;1095;22350;-78
2021/08/03 05:24:35;;;;;;;9.13;5.33;;;;;;;17.41;67.77;100337.75;128560;1093;22360;-78
2021/08/03 05:27:05;;;;;;;5.25;4.78;;;;;;;17.63;66.92;100340.94;128283;1095;24519;-79
2021/08/03 05:29:35;;;;;;;10.13;5.23;;;;;;;17.87;66.01;100344.72;128272;1094;22389;-79
2021/08/03 05:32:05;;;;;;;5.43;4.93;;;;;;;18.13;66.01;100338.37;128299;1095;22363;-79
2021/08/03 05:34:35;;;;;;;5.30;4.80;;;;;;;18.42;65.04;100336.87;128288;1095;22363;-79
2021/08/03 05:37:06;;;;;;;7.38;4.45;;;;;;;18.71;63.96;100342.58;128588;1095;22351;-79
2021/08/03 05:39:36;;;;;;;6.88;4.48;;;;;;;19.06;63.79;100348.22;128590;1095;22350;-79
2021/08/03 05:42:06;;;;;;;7.95;4.08;;;;;;;19.42;62.65;100338.48;128294;1095;22391;-79
2021/08/03 05:44:36;;;;;;;5.25;4.75;;;;;;;19.69;60.58;100347.01;128279;1094;22352;-78
2021/08/03 05:47:06;;;;;;;7.93;7.03;;;;;;;19.88;60.20;100342.41;128603;1095;22363;-78
2021/08/03 05:49:35;;;;;;;7.58;4.68;;;;;;;20.09;59.66;100344.58;128305;1095;22344;-78
2021/08/03 05:52:05;;;;;;;6.38;3.80;;;;;;;20.41;59.00;100336.20;128578;1095;22347;-78
2021/08/03 05:54:35;;;;;;;5.93;4.25;;;;;;;20.84;58.53;100337.73;128289;1095;22993;-78
2021/08/03 05:57:05;;;;;;;5.43;4.15;;;;;;;21.22;57.12;100336.36;128285;1094;22364;-78
2021/08/03 05:59:34;;;;;;;4.78;3.80;;;;;;;21.57;56.02;100338.95;128319;1094;22347;-79
2021/08/03 06:02:04;;;;;;;7.33;3.83;;;;;;;21.77;54.46;100336.63;128271;1095;22345;-78
2021/08/03 06:04:34;;;;;;;6.27;3.63;;;;;;;22.12;54.47;100342.86;128307;1095;22355;-78
2021/08/03 06:07:05;;;;;;;5.15;4.50;;;;;;;22.36;53.33;100344.38;128325;1095;22346;-78
2021/08/03 06:09:37;;;;;;;7.80;4.80;;;;;;;22.66;53.05;100341.31;128335;1095;22340;-78
2021/08/03 06:12:07;;;;;;;;;;;;;;;22.90;52.25;100339.20;128325;1095;22351;-79
2021/08/03 06:14:42;;;;;;;6.67;3.97;;;;;;;23.13;51.83;100329.29;128241;1095;21569;-78
2021/08/03 06:17:15;;;;;;;5.15;4.60;;;;;;;23.43;50.82;100340.41;128310;1095;22369;-79
2021/08/03 06:19:49;;;;;;;6.78;4.38;;;;;;;23.62;50.27;100335.47;128485;1095;22366;-79
2021/08/03 06:22:19;;;;;;;3.93;3.28;;;;;;;23.92;49.37;100343.06;128592;1095;24492;-78
2021/08/03 06:24:49;;;;;;;5.73;3.68;;;;;;;24.13;47.93;100335.16;128581;1095;22435;-78
2021/08/03 06:27:20;;;;;;;6.03;3.68;;;;;;;24.36;47.35;100340.20;128274;1093;24237;-78
2021/08/03 06:29:52;;;;;;;6.60;3.90;;;;;;;24.62;46.54;100337.67;128340;1095;24227;-78
2021/08/03 06:32:23;;;;;;;5.88;3.93;;;;;;;24.85;46.23;100344.55;128314;1093;22409;-78
2021/08/03 06:34:52;;;;;;;4.60;3.23;;;;;;;25.08;45.64;100351.42;128310;1095;22336;-78
2021/08/03 06:37:22;;;;;;;13.17;4.50;;;;;;;25.35;45.16;100341.27;128298;1095;22347;-78
2021/08/03 06:39:52;;;;;;;5.05;3.13;;;;;;;25.66;44.47;100345.94;128304;1095;22352;-78
2021/08/03 06:42:36;;;;;;;5.15;4.23;;;;;;;25.92;43.21;100344.91;128581;1093;22359;-78
2021/08/03 06:45:20;;;;;;;5.65;3.30;;;;;;;26.23;42.92;100344.94;128597;1095;22352;-78
2021/08/03 06:48:19;;;;;;;5.75;3.78;;;;;;;26.43;42.45;100342.20;128655;1095;22343;-79
2021/08/03 06:51:10;;;;;;;4.95;3.35;;;;;;;26.73;42.01;100346.78;128551;1095;22343;-80
2021/08/03 06:53:42;;;;;;;10.15;3.18;;;;;;;26.85;40.80;100342.94;128608;1095;24151;-80
2021/08/03 06:56:25;;;;;;;4.43;2.78;;;;;;;26.78;40.56;100342.42;128563;1095;24215;-80
2021/08/03 06:59:06;;;;;;;7.73;3.00;;;;;;;26.93;40.17;100343.19;128527;1095;22348;-80
2021/08/03 07:01:55;;;;;;;5.15;2.73;;;;;;;27.12;39.47;100347.98;128603;1094;22344;-80
2021/08/03 07:04:47;;;;;;;5.68;2.50;;;;;;;27.25;39.00;100346.60;128909;1095;24500;-81
2021/08/03 07:07:19;;;;;;;3.00;2.43;;;;;;;27.55;38.08;100335.58;128633;1095;22379;-81
2021/08/03 07:09:49;;;;;;;8.60;2.78;;;;;;;27.67;37.36;100341.47;128555;1093;24499;-80
2021/08/03 07:12:21;;;;;;;3.03;2.30;;;;;;;27.84;37.30;100345.73;128537;1095;22362;-81
2021/08/03 07:14:54;;;;;;;5.88;2.93;;;;;;;28.06;36.57;100343.39;128561;1095;24485;-80
2021/08/03 07:17:25;;;;;;;8.43;2.70;;;;;;;28.30;35.70;100339.92;128585;1095;22370;-80
2021/08/03 07:19:58;;;;;;;32.75;16.20;;;;;;;28.51;35.20;100345.99;128537;1095;22603;-81
2021/08/03 07:22:31;;;;;;;6.13;3.73;;;;;;;28.72;34.67;100341.14;128307;1097;23052;-80
2021/08/03 07:25:03;;;;;;;6.35;2.60;;;;;;;28.80;33.78;100343.23;128321;1098;22367;-80
2021/08/03 07:27:33;;;;;;;3.75;2.93;;;;;;;28.84;34.17;100339.64;128507;1098;22372;-81
2021/08/03 07:30:10;;;;;;;4.83;2.40;;;;;;;28.87;33.96;100342.89;128405;1098;22353;-80
2021/08/03 07:32:40;;;;;;;4.75;2.58;;;;;;;29.08;34.06;100353.24;128251;1098;22819;-80
2021/08/03 07:35:10;;;;;;;4.50;2.28;;;;;;;29.10;33.59;100346.72;128402;1097;22359;-81
2021/08/03 07:37:40;;;;;;;5.07;2.30;;;;;;;29.22;32.74;100341.65;128433;1097;22363;-80
2021/08/03 07:40:10;;;;;;;2.95;2.10;;;;;;;29.26;32.40;100345.42;128273;1093;24486;-81
2021/08/03 07:42:40;;;;;;;4.83;3.03;;;;;;;29.42;32.08;100344.09;128487;1095;22653;-81
2021/08/03 07:45:10;;;;;;;;;;;;;;;29.51;31.39;100346.97;128577;1095;22351;-81
2021/08/03 07:47:40;;;;;;;5.28;2.70;;;;;;;29.38;31.75;100351.22;128526;1094;21463;-81
2021/08/03 07:50:11;;;;;;;3.30;2.13;;;;;;;29.50;32.00;100348.08;128543;1095;22343;-81
2021/08/03 07:52:41;;;;;;;8.90;6.80;;;;;;;29.66;31.40;100348.70;128559;1095;24224;-81
2021/08/03 07:55:11;;;;;;;;;;;;;;;29.70;29.82;100347.80;128555;1095;22344;-80
2021/08/03 07:57:41;;;;;;;6.13;2.53;;;;;;;29.71;30.97;100352.14;128547;1095;21267;-80
2021/08/03 08:00:11;;;;;;;2.88;1.68;;;;;;;29.83;30.98;100353.62;128567;1095;22331;-80
2021/08/03 08:02:42;;;;;;;4.90;1.98;;;;;;;30.12;30.49;100345.22;128557;1095;24985;-81
2021/08/03 08:05:13;;;;;;;4.45;2.23;;;;;;;30.40;29.59;100346.95;128577;1095;22340;-81
2021/08/03 08:07:43;;;;;;;3.60;1.53;;;;;;;30.38;28.71;100353.80;128556;1095;22346;-81
2021/08/03 08:10:13;;;;;;;2.80;1.75;;;;;;;30.45;28.99;100346.84;128522;1095;22360;-81
2021/08/03 08:12:43;;;;;;;3.70;1.60;;;;;;;30.49;28.56;100347.07;128523;1095;22363;-81
2021/08/03 08:15:13;;;;;;;4.47;1.23;;;;;;;30.22;27.77;100345.91;128483;1093;22352;-82
2021/08/03 08:17:43;;;;;;;3.60;1.00;;;;;;;30.11;28.12;100351.79;128571;1095;22359;-81
2021/08/03 08:20:14;;;;;;;2.48;1.10;;;;;;;30.24;28.02;100345.59;128640;1095;23982;-80
2021/08/03 08:22:44;;;;;;;2.10;1.05;;;;;;;30.31;27.78;100339.76;128532;1095;22343;-81
2021/08/03 08:25:15;;;;;;;4.38;1.30;;;;;;;30.37;28.39;100344.81;128516;1095;22357;-81
2021/08/03 08:27:44;;;;;;;2.67;1.40;;;;;;;30.34;27.68;100353.59;128713;1095;22362;-80
2021/08/03 08:30:14;;;;;;;4.17;1.30;;;;;;;30.48;27.63;100348.96;128416;1098;22459;-80
2021/08/03 08:32:45;;;;;;;5.15;1.30;;;;;;;30.40;27.04;100349.67;128524;1098;25648;-81
2021/08/03 08:35:36;;;;;;;3.35;1.25;;;;;;;30.27;27.38;100336.83;128360;1098;22363;-81
2021/08/03 08:38:06;;;;;;;3.00;1.30;;;;;;;30.35;27.24;100348.95;128279;1098;22369;-82
2021/08/03 08:40:42;;;;;;;5.30;1.35;;;;;;;30.50;26.92;100343.23;128234;1100;22388;-81
2021/08/03 08:43:16;;;;;;;2.68;1.33;;;;;;;30.60;26.47;100339.50;128191;1098;23141;-81
2021/08/03 08:45:46;;;;;;;3.65;1.08;;;;;;;30.74;26.76;100342.23;128198;1098;22377;-81
2021/08/03 08:48:20;;;;;;;9.00;1.65;;;;;;;30.71;26.26;100351.81;128240;1098;22384;-81
2021/08/03 08:50:55;;;;;;;4.13;1.25;;;;;;;30.74;26.30;100345.77;128074;1098;22353;-81
2021/08/03 08:53:27;;;;;;;3.25;1.30;;;;;;;30.81;26.02;100348.92;128317;1098;22378;-82
2021/08/03 08:55:57;;;;;;;2.93;1.33;;;;;;;30.56;25.70;100341.22;128452;1098;23132;-81
2021/08/03 08:58:26;;;;;;;4.35;1.30;;;;;;;30.54;25.80;100341.51;128525;1095;22346;-82
2021/08/03 09:00:56;;;;;;;3.50;1.43;;;;;;;30.30;25.67;100340.88;128528;1095;22343;-82
2021/08/03 09:03:26;;;;;;;4.63;3.33;;;;;;;30.42;26.08;100347.47;128540;1095;22347;-81
2021/08/03 09:06:01;;;;;;;4.48;1.98;;;;;;;30.66;25.58;100346.48;128538;1095;24310;-81
2021/08/03 09:08:44;;;;;;;5.20;1.80;;;;;;;30.37;25.36;100346.74;128330;1095;23128;-81
2021/08/03 09:11:22;;;;;;;3.68;1.73;;;;;;;30.01;26.31;100345.39;128552;1094;22351;-80
2021/08/03 09:14:02;;;;;;;2.45;1.23;;;;;;;29.63;26.26;100333.77;128545;1095;22333;-81
2021/08/03 09:16:48;;;;;;;6.43;1.53;;;;;;;29.62;26.61;100334.84;128594;1095;22719;-82
2021/08/03 09:19:40;;;;;;;7.80;1.58;;;;;;;29.29;26.96;100340.20;128588;1095;22351;-79
2021/08/03 09:22:17;;;;;;;5.83;1.10;;;;;;;29.10;26.73;100344.00;128547;1095;24743;-81
2021/08/03 09:24:51;;;;;;;5.10;1.30;;;;;;;28.88;27.03;100345.30;128601;1095;22366;-81
2021/08/03 09:27:44;;;;;;;3.05;1.40;;;;;;;28.86;27.37;100347.52;128787;1095;22346;-81
2021/08/03 09:30:17;;;;;;;3.13;1.20;;;;;;;29.06;27.83;100335.62;128763;1095;22315;-80
2021/08/03 09:32:48;;;;;;;5.00;1.40;;;;;;;29.44;27.48;100331.00;128821;1095;25953;-80
2021/08/03 09:35:22;;;;;;;3.35;1.40;;;;;;;29.71;26.70;100337.72;128736;1095;24601;-81
2021/08/03 09:37:53;;;;;;;1.80;1.00;;;;;;;29.61;26.65;100340.60;128753;1095;24177;-79
2021/08/03 09:40:33;;;;;;;2.75;1.10;;;;;;;29.44;26.13;100341.09;128582;1095;24512;-80
2021/08/03 09:43:13;;;;;;;1.78;1.15;;;;;;;29.23;26.37;100343.28;128537;1095;24983;-79
2021/08/03 09:46:03;;;;;;;4.50;1.55;;;;;;;28.98;26.56;100339.74;128536;1095;22793;-80
2021/08/03 09:48:33;;;;;;;4.70;1.23;;;;;;;28.61;27.03;100346.69;128245;1098;24992;-79
2021/08/03 09:51:13;;;;;;;5.07;1.53;;;;;;;28.36;27.65;100344.22;128266;1096;22383;-79
2021/08/03 09:53:49;;;;;;;4.83;1.40;;;;;;;28.20;27.91;100340.02;128312;1098;22688;-79
2021/08/03 09:56:49;;;;;;;3.40;1.68;;;;;;;28.02;28.12;100338.80;128305;1098;22383;-80
2021/08/03 09:59:36;;;;;;;5.33;1.13;;;;;;;27.99;28.55;100336.64;127950;1101;24517;-79
2021/08/03 10:02:05;;;;;;;5.33;1.40;;;;;;;28.35;28.43;100335.23;127833;1101;23497;-79
2021/08/03 10:04:36;;;;;;;3.07;1.23;;;;;;;28.75;28.08;100332.41;127835;1101;22368;-80
2021/08/03 10:07:06;;;;;;;;;;;;;;;28.50;26.71;100339.75;127915;1104;23335;-78
2021/08/03 10:09:38;;;;;;;2.90;1.43;;;;;;;28.12;27.95;100336.83;128062;1103;21426;-79
2021/08/03 10:12:08;;;;;;;5.95;1.40;;;;;;;27.96;28.50;100342.64;127638;1105;24281;-80
2021/08/03 10:14:39;;;;;;;3.10;1.40;;;;;;;27.79;29.17;100334.90;127650;1104;22399;-79
2021/08/03 10:17:09;;;;;;;7.38;3.23;;;;;;;27.74;29.46;100332.20;127730;1105;24679;-79
2021/08/03 10:19:40;;;;;;;5.15;2.23;;;;;;;28.02;29.76;100336.08;127767;1104;22466;-80
2021/08/03 10:22:35;;;;;;;5.85;4.05;;;;;;;28.19;29.13;100338.38;127818;1104;22412;-79
2021/08/03 10:25:15;;;;;;;3.75;1.70;;;;;;;28.47;28.92;100339.52;128126;1101;22362;-79
2021/08/03 10:27:47;;;;;;;1.80;1.10;;;;;;;28.89;28.38;100335.23;128258;1098;22364;-79
2021/08/03 10:30:29;;;;;;;2.35;1.20;;;;;;;29.02;27.38;100329.12;128238;1098;22367;-80
2021/08/03 10:33:01;;;;;;;6.18;1.50;;;;;;;28.70;27.51;100327.05;128476;1098;22456;-80
2021/08/03 10:35:49;;;;;;;4.77;1.57;;;;;;;28.45;27.89;100323.48;128303;1098;22370;-79
2021/08/03 10:38:28;;;;;;;6.05;1.68;;;;;;;28.18;27.89;100328.62;128562;1095;22362;-76
2021/08/03 10:41:24;;;;;;;7.73;1.48;;;;;;;27.89;28.45;100319.38;128338;1095;24263;-75
2021/08/03 10:43:54;;;;;;;2.58;1.55;;;;;;;28.04;28.71;100323.84;128127;1097;22364;-76
2021/08/03 10:46:26;;;;;;;5.10;1.78;;;;;;;28.12;28.99;100322.41;128268;1098;22359;-76
2021/08/03 10:48:56;;;;;;;3.37;1.80;;;;;;;28.15;28.59;100322.66;128147;1098;24498;-76
2021/08/03 10:51:26;;;;;;;2.77;1.70;;;;;;;27.89;28.58;100318.53;128200;1098;25686;-76
2021/08/03 10:54:09;;;;;;;14.23;1.70;;;;;;;27.66;29.32;100311.92;128193;1098;22370;-75
2021/08/03 10:57:14;;;;;;;2.58;1.28;;;;;;;27.47;29.55;100309.05;128164;1098;22375;-76
2021/08/03 10:59:45;;;;;;;2.05;1.33;;;;;;;27.37;29.37;100309.12;127946;1099;22369;-76
2021/08/03 11:02:38;;;;;;;3.18;2.83;;;;;;;27.26;29.52;100310.25;127905;1101;24352;-75
2021/08/03 11:05:26;;;;;;;4.00;1.60;;;;;;;27.21;29.65;100311.91;127869;1101;24553;-76
2021/08/03 11:07:56;;;;;;;2.25;1.25;;;;;;;27.13;29.67;100315.22;127939;1101;24508;-75
2021/08/03 11:10:57;;;;;;;4.93;1.80;;;;;;;26.93;29.67;100316.09;127912;1101;24263;-75
2021/08/03 11:13:47;;;;;;;;;;;;;;;26.60;30.26;100303.20;127518;1103;24198;-75
2021/08/03 11:16:20;;;;;;;2.18;1.30;;;;;;;26.53;30.46;100310.80;127508;1105;22984;-76
2021/08/03 11:18:55;;;;;;;2.48;1.23;;;;;;;26.41;30.32;100311.86;127397;1103;22703;-76
2021/08/03 11:21:27;;;;;;;4.53;1.60;;;;;;;26.33;30.98;100298.89;127352;1101;24066;-75
2021/08/03 11:24:13;;;;;;;3.10;1.43;;;;;;;26.40;31.20;100304.03;127623;1101;22468;-76
2021/08/03 11:26:55;;;;;;;4.65;1.38;;;;;;;26.51;31.56;100311.87;127925;1101;22443;-76
2021/08/03 11:29:35;;;;;;;2.03;1.30;;;;;;;26.59;31.27;100301.55;127533;1101;22933;-75
2021/08/03 11:32:08;;;;;;;2.60;1.43;;;;;;;26.57;31.25;100303.74;127730;1101;22371;-76
2021/08/03 11:34:42;;;;;;;3.35;2.08;;;;;;;26.60;31.12;100297.78;128056;1097;22500;-76
2021/08/03 11:37:22;;;;;;;6.33;1.40;;;;;;;26.66;31.64;100294.78;128023;1098;22395;-76
2021/08/03 11:39:58;;;;;;;4.75;1.50;;;;;;;26.73;31.40;100299.91;128159;1098;22381;-75
2021/08/03 11:42:41;;;;;;;3.75;1.98;;;;;;;26.78;31.53;100282.80;128229;1098;23521;-75
2021/08/03 11:45:21;;;;;;;4.33;1.70;;;;;;;26.79;31.33;100295.25;128227;1098;22335;-76
2021/08/03 11:47:58;;;;;;;3.30;1.80;;;;;;;26.63;31.17;100289.91;127977;1098;23134;-76
2021/08/03 11:50:32;;;;;;;5.20;1.38;;;;;;;26.46;31.30;100283.97;128243;1095;25076;-75
2021/08/03 11:53:29;;;;;;;6.00;4.48;;;;;;;26.48;31.50;100271.78;128296;1095;22523;-75
2021/08/03 11:55:59;;;;;;;4.13;1.40;;;;;;;26.46;31.30;100273.14;128009;1098;24505;-75